Time;durP1;ratioP1;P1;durP2;ratioP2;P2;SDS_P1;SDS_P2;PMS_P1;PMS_P2;Temp;Humidity;BMP_temperature;BMP_pressure;BME280_temperature;BME280_humidity;BME280_pressure;Samples;Min_cycle;Max_cycle;Signal;HPM_P1;HPM_P2
2021/03/02 00:00:28;;;;;;;14.63;10.83;;;;;;;-144.99;100.00;52517.41;4973328;28;21248;-72
2021/03/02 00:02:54;;;;;;;21.83;11.93;;;;;;;-144.99;100.00;52541.84;4974822;28;20631;-73
2021/03/02 00:05:20;;;;;;;19.00;13.07;;;;;;;-144.99;100.00;52537.78;4973838;28;20643;-72
2021/03/02 00:07:46;;;;;;;14.27;11.37;;;;;;;-144.99;100.00;52519.44;4973903;28;20642;-72
2021/03/02 00:10:13;;;;;;;15.30;10.87;;;;;;;-144.99;100.00;52533.69;4973268;28;20230;-72
2021/03/02 00:12:41;;;;;;;19.57;12.33;;;;;;;-144.99;100.00;52509.25;4972667;28;20192;-72
2021/03/02 00:15:09;;;;;;;14.97;11.10;;;;;;;-144.99;100.00;52484.78;4973031;28;20931;-72
2021/03/02 00:17:43;;;;;;;10.60;9.57;;;;;;;-144.99;100.00;52490.91;4969912;28;20659;-72
2021/03/02 00:20:10;;;;;;;14.67;11.03;;;;;;;-144.99;100.00;52513.31;4971416;28;20710;-74
2021/03/02 00:22:48;;;;;;;19.57;11.63;;;;;;;-144.99;100.00;52501.09;4972202;28;20711;-75
2021/03/02 00:25:15;;;;;;;13.40;10.97;;;;;;;-144.99;100.00;52545.94;4972626;28;20627;-72
2021/03/02 00:27:42;;;;;;;16.37;12.33;;;;;;;-144.99;100.00;52517.41;4972630;28;20730;-71
2021/03/02 00:30:09;;;;;;;29.73;14.30;;;;;;;-144.99;100.00;52545.94;4972430;28;20618;-73
2021/03/02 00:32:37;;;;;;;23.67;10.37;;;;;;;-144.99;100.00;52497.00;4972093;28;20677;-74
2021/03/02 00:35:05;;;;;;;31.43;12.70;;;;;;;-144.99;100.00;52509.25;4971857;28;20619;-74
2021/03/02 00:37:31;;;;;;;17.77;12.17;;;;;;;-144.99;100.00;52525.56;4971666;28;20658;-73
2021/03/02 00:39:57;;;;;;;29.30;11.67;;;;;;;-144.99;100.00;52488.84;4972138;28;20709;-74
2021/03/02 00:42:23;;;;;;;26.17;12.03;;;;;;;-144.99;100.00;52533.69;4972829;28;20650;-74
2021/03/02 00:44:49;;;;;;;38.30;15.67;;;;;;;-144.99;100.00;52529.63;4972336;28;20920;-73
2021/03/02 00:47:15;;;;;;;19.23;13.93;;;;;;;-144.99;100.00;52533.69;4971857;28;20465;-73
2021/03/02 00:49:42;;;;;;;39.27;14.27;;;;;;;-144.99;100.00;52525.56;4971660;28;20200;-73
2021/03/02 00:52:08;;;;;;;16.43;12.50;;;;;;;-144.99;100.00;52505.16;4971254;28;20623;-74
2021/03/02 00:54:34;;;;;;;21.50;12.33;;;;;;;-144.99;100.00;52513.31;4971537;28;20781;-74
2021/03/02 00:57:00;;;;;;;21.37;12.97;;;;;;;-144.99;100.00;52517.41;4971049;28;20251;-73
2021/03/02 00:59:26;;;;;;;20.60;11.83;;;;;;;-144.99;100.00;52464.41;4972002;28;20200;-73
2021/03/02 01:01:52;;;;;;;23.03;12.97;;;;;;;-144.99;100.00;52541.84;4971457;28;20618;-72
2021/03/02 01:04:18;;;;;;;44.43;12.87;;;;;;;-144.99;100.00;52550.00;4972154;28;20702;-73
2021/03/02 01:06:44;;;;;;;19.00;11.27;;;;;;;-144.99;100.00;52521.47;4969827;28;20655;-73
2021/03/02 01:09:11;;;;;;;30.97;11.67;;;;;;;-144.99;100.00;52523.50;4971094;28;21081;-75
2021/03/02 01:11:37;;;;;;;17.90;10.63;;;;;;;-144.99;100.00;52501.09;4972438;28;20635;-74
2021/03/02 01:14:03;;;;;;;19.17;11.83;;;;;;;-144.99;100.00;52480.72;4972617;28;20631;-73
2021/03/02 01:16:29;;;;;;;21.53;12.20;;;;;;;-144.99;100.00;52533.69;4975881;28;20667;-74
2021/03/02 01:18:55;;;;;;;40.50;12.53;;;;;;;-144.99;100.00;52513.31;4972688;28;21452;-74
2021/03/02 01:21:21;;;;;;;30.63;13.87;;;;;;;-144.99;100.00;52541.84;4973455;28;20727;-72
2021/03/02 01:23:48;;;;;;;30.33;12.47;;;;;;;-144.99;100.00;52541.84;4974311;28;20215;-73
2021/03/02 01:26:14;;;;;;;17.57;11.83;;;;;;;-144.99;100.00;52515.34;4973039;28;20650;-74
2021/03/02 01:28:40;;;;;;;25.47;13.27;;;;;;;-144.99;100.00;52484.78;4972496;28;20627;-72
2021/03/02 01:31:06;;;;;;;26.63;13.33;;;;;;;-144.99;100.00;52484.78;4971242;28;20627;-74
2021/03/02 01:33:33;;;;;;;28.30;14.40;;;;;;;-144.99;100.00;52525.56;4974266;28;20608;-73
2021/03/02 01:35:59;;;;;;;20.13;12.80;;;;;;;-144.99;100.00;52515.34;4971158;28;20727;-73
2021/03/02 01:38:25;;;;;;;30.83;17.10;;;;;;;-144.99;100.00;52492.94;4971674;28;20619;-73
2021/03/02 01:40:52;;;;;;;21.03;14.07;;;;;;;-144.99;100.00;52529.63;4970998;28;20564;-73
2021/03/02 01:43:18;;;;;;;77.80;19.67;;;;;;;-144.99;100.00;52505.16;4971240;28;20642;-73
2021/03/02 01:45:44;;;;;;;70.10;17.00;;;;;;;-144.99;100.00;52492.94;4970606;28;20638;-73
2021/03/02 01:48:11;;;;;;;25.97;14.47;;;;;;;-144.99;100.00;52505.16;4967374;28;20643;-74
2021/03/02 01:50:38;;;;;;;34.27;17.03;;;;;;;-144.99;100.00;52537.78;4974069;28;20627;-74
2021/03/02 01:53:04;;;;;;;44.37;15.87;;;;;;;-144.99;100.00;52488.84;4975769;28;20624;-72
2021/03/02 01:55:30;;;;;;;19.37;12.47;;;;;;;-144.99;100.00;52525.56;4978709;28;20704;-72
2021/03/02 01:57:57;;;;;;;44.23;13.93;;;;;;;-144.99;100.00;52545.94;4982043;28;20670;-73
2021/03/02 02:00:27;;;;;;;33.80;13.53;;;;;;;-144.99;100.00;52480.72;4970590;28;20661;-73
2021/03/02 02:03:08;;;;;;;19.37;11.17;;;;;;;-144.99;100.00;52488.84;4970120;28;20698;-72
2021/03/02 02:05:40;;;;;;;32.73;10.57;;;;;;;-144.99;100.00;52492.94;4969871;28;20620;-71
2021/03/02 02:08:07;;;;;;;26.23;10.60;;;;;;;-144.99;100.00;52550.00;4970941;28;20651;-72
2021/03/02 02:10:40;;;;;;;20.03;10.47;;;;;;;-144.99;100.00;52523.50;4970931;28;20627;-73
2021/03/02 02:13:13;;;;;;;19.27;12.77;;;;;;;-144.99;100.00;52497.00;4971489;28;20627;-74
2021/03/02 02:15:40;;;;;;;11.33;10.17;;;;;;;-144.99;100.00;52505.16;4970176;28;20623;-74
2021/03/02 02:18:10;;;;;;;18.63;10.97;;;;;;;-144.99;100.00;52543.91;4971080;28;20670;-74
2021/03/02 02:20:45;;;;;;;21.20;10.77;;;;;;;-144.99;100.00;52537.78;4969999;28;21209;-73
2021/03/02 02:23:28;;;;;;;11.40;9.70;;;;;;;-144.99;100.00;52529.63;4970760;28;20627;-72
2021/03/02 02:26:02;;;;;;;28.40;13.30;;;;;;;-144.99;100.00;52482.75;4970588;28;20623;-73
2021/03/02 02:28:32;;;;;;;12.97;9.83;;;;;;;-144.99;100.00;52509.25;4971299;28;20626;-73
2021/03/02 02:30:58;;;;;;;14.90;10.37;;;;;;;-144.99;100.00;52497.00;4970727;28;20946;-72
2021/03/02 02:33:30;;;;;;;15.17;9.93;;;;;;;-144.99;100.00;52537.78;4970411;28;21000;-73
2021/03/02 02:35:59;;;;;;;15.03;13.47;;;;;;;-144.99;100.00;52521.47;4968280;28;20655;-72
2021/03/02 02:38:27;;;;;;;12.63;10.37;;;;;;;-144.99;100.00;52505.16;4970414;28;20690;-72
2021/03/02 02:40:55;;;;;;;16.80;11.07;;;;;;;-144.99;100.00;52525.56;4970238;28;20659;-73
2021/03/02 02:43:22;;;;;;;13.33;10.47;;;;;;;-144.99;100.00;52519.44;4966758;28;20701;-73
2021/03/02 02:45:51;;;;;;;12.57;9.40;;;;;;;-144.99;100.00;52541.84;4969664;28;20627;-73
2021/03/02 02:48:18;;;;;;;12.67;10.20;;;;;;;-144.99;100.00;52533.69;4970707;28;20644;-72
2021/03/02 02:50:45;;;;;;;11.23;9.87;;;;;;;-144.99;100.00;52529.63;4969548;28;20604;-72
2021/03/02 02:53:11;;;;;;;14.17;9.27;;;;;;;-144.99;100.00;52517.41;4970154;28;20619;-73
2021/03/02 02:55:43;;;;;;;18.03;11.93;;;;;;;-144.99;100.00;52533.69;4970300;28;20650;-73
2021/03/02 02:58:10;;;;;;;14.83;10.80;;;;;;;-144.99;100.00;52533.69;4970383;28;20702;-74
2021/03/02 03:00:38;;;;;;;16.20;10.60;;;;;;;-144.99;100.00;52537.78;4969423;28;20655;-72
2021/03/02 03:03:09;;;;;;;11.33;9.27;;;;;;;-144.99;100.00;52527.59;4966155;28;20615;-71
2021/03/02 03:05:36;;;;;;;16.33;11.27;;;;;;;-144.99;100.00;52525.56;4968972;28;20630;-70
2021/03/02 03:08:06;;;;;;;13.33;11.07;;;;;;;-144.99;100.00;52517.41;4970022;28;20655;-70
2021/03/02 03:10:34;;;;;;;14.37;10.03;;;;;;;-144.99;100.00;52497.00;4969936;28;20631;-72
2021/03/02 03:13:04;;;;;;;14.70;9.73;;;;;;;-144.99;100.00;52525.56;4969946;28;20627;-72
2021/03/02 03:15:31;;;;;;;15.80;10.53;;;;;;;-144.99;100.00;52529.63;4970796;28;20643;-75
2021/03/02 03:17:59;;;;;;;20.50;9.47;;;;;;;-144.99;100.00;52539.81;4970012;28;20662;-75
2021/03/02 03:20:27;;;;;;;16.33;10.23;;;;;;;-144.99;100.00;52492.94;4972490;28;20666;-76
2021/03/02 03:22:55;;;;;;;16.63;12.87;;;;;;;-144.99;100.00;52511.28;4974638;28;20642;-77
2021/03/02 03:25:21;;;;;;;19.20;11.83;;;;;;;-144.99;100.00;52527.59;4974584;28;20650;-74
2021/03/02 03:27:52;;;;;;;23.97;12.27;;;;;;;-144.99;100.00;52529.63;4973576;28;20647;-76
2021/03/02 03:30:20;;;;;;;28.80;11.63;;;;;;;-144.99;100.00;52497.00;4973447;28;20977;-77
2021/03/02 03:32:51;;;;;;;25.77;11.30;;;;;;;-144.99;100.00;52476.63;4974518;28;20643;-76
2021/03/02 03:35:18;;;;;;;22.13;13.20;;;;;;;-144.99;100.00;52509.25;4973856;28;21035;-75
2021/03/02 03:37:45;;;;;;;19.03;11.20;;;;;;;-144.99;100.00;52501.09;4974280;28;20644;-77
2021/03/02 03:40:12;;;;;;;26.70;11.20;;;;;;;-144.99;100.00;52517.41;4973845;28;21273;-75
2021/03/02 03:42:39;;;;;;;26.07;12.87;;;;;;;-144.99;100.00;52517.41;4974378;28;20621;-75
2021/03/02 03:45:06;;;;;;;23.83;10.73;;;;;;;-144.99;100.00;52509.25;4973213;28;21172;-76
2021/03/02 03:47:32;;;;;;;18.33;12.07;;;;;;;-144.99;100.00;52492.94;4973511;28;20662;-73
2021/03/02 03:49:58;;;;;;;32.17;13.73;;;;;;;-144.99;100.00;52513.31;4972296;28;20697;-74
2021/03/02 03:52:24;;;;;;;17.27;11.90;;;;;;;-144.99;100.00;52566.31;4973369;28;21177;-76
2021/03/02 03:54:54;;;;;;;20.13;10.47;;;;;;;-144.99;100.00;52497.00;4968591;28;20734;-74
2021/03/02 03:57:22;;;;;;;25.17;12.43;;;;;;;-144.99;100.00;52492.94;4972969;28;20220;-74
2021/03/02 03:59:48;;;;;;;23.50;11.17;;;;;;;-144.99;100.00;52505.16;4972671;28;20638;-73
2021/03/02 05:07:28;;;;;;;17.70;12.93;;;;;;;-144.99;100.00;52517.41;4962608;28;20643;-73
2021/03/02 05:09:54;;;;;;;19.83;11.40;;;;;;;-144.99;100.00;52529.63;4971836;28;20643;-74
2021/03/02 05:12:20;;;;;;;19.07;12.00;;;;;;;-144.99;100.00;52464.41;4973235;28;20646;-71
2021/03/02 05:14:46;;;;;;;18.43;12.30;;;;;;;-144.99;100.00;52497.00;4972729;28;20616;-74
2021/03/02 05:17:12;;;;;;;18.73;11.67;;;;;;;-144.99;100.00;52492.94;4972898;28;20671;-72
2021/03/02 05:19:38;;;;;;;22.00;10.97;;;;;;;-144.99;100.00;52488.84;4973635;28;21152;-73
2021/03/02 05:22:04;;;;;;;12.33;9.67;;;;;;;-144.99;100.00;52468.47;4972564;28;20656;-73
2021/03/02 05:24:31;;;;;;;13.23;10.27;;;;;;;-144.99;100.00;52464.41;4973144;28;20639;-72
2021/03/02 05:26:57;;;;;;;15.30;10.57;;;;;;;-144.99;100.00;52529.63;4971216;28;20659;-73
2021/03/02 05:29:23;;;;;;;15.27;10.93;;;;;;;-144.99;100.00;52511.28;4971818;28;20620;-75
2021/03/02 05:31:49;;;;;;;17.60;9.97;;;;;;;-144.99;100.00;52458.28;4971607;28;20756;-72
2021/03/02 05:34:15;;;;;;;15.97;11.03;;;;;;;-144.99;100.00;52509.25;4972510;28;20616;-75
2021/03/02 05:36:41;;;;;;;15.70;11.07;;;;;;;-144.99;100.00;52472.56;4970549;28;20662;-75
2021/03/02 05:39:07;;;;;;;20.37;10.60;;;;;;;-144.99;100.00;52505.16;4972700;28;20678;-76
2021/03/02 05:41:35;;;;;;;24.93;13.33;;;;;;;-144.99;100.00;52525.56;4973632;28;20678;-75
2021/03/02 05:44:01;;;;;;;19.97;10.77;;;;;;;-144.99;100.00;52513.31;4973869;28;20620;-76
2021/03/02 05:46:27;;;;;;;22.73;11.80;;;;;;;-144.99;100.00;52497.00;4973989;28;21016;-76
2021/03/02 05:48:54;;;;;;;10.53;8.20;;;;;;;-144.99;100.00;52541.84;4988807;28;20620;-79
2021/03/02 05:51:20;;;;;;;18.73;10.83;;;;;;;-144.99;100.00;52521.47;4989982;28;20635;-77
2021/03/02 05:53:46;;;;;;;21.80;10.80;;;;;;;-144.99;100.00;52529.63;4986679;28;20619;-75
2021/03/02 05:56:13;;;;;;;15.20;10.43;;;;;;;-144.99;100.00;52501.09;4982397;28;20612;-73
2021/03/02 05:58:40;;;;;;;23.63;10.90;;;;;;;-144.99;100.00;52513.31;4972391;28;20654;-76
2021/03/02 06:01:06;;;;;;;16.53;11.20;;;;;;;-144.99;100.00;52521.47;4968209;28;20662;-74
2021/03/02 06:03:35;;;;;;;16.50;12.20;;;;;;;-144.99;100.00;52521.47;4971976;28;20690;-73
2021/03/02 06:06:01;;;;;;;17.63;10.80;;;;;;;-144.99;100.00;52509.25;4969925;28;21052;-73
2021/03/02 06:08:27;;;;;;;14.10;11.00;;;;;;;-144.99;100.00;52497.00;4971062;28;20642;-74
2021/03/02 06:10:53;;;;;;;26.33;12.47;;;;;;;-144.99;100.00;52501.09;4971619;28;20698;-74
2021/03/02 06:13:25;;;;;;;17.17;10.53;;;;;;;-144.99;100.00;52511.28;4973088;28;20993;-74
2021/03/02 06:15:56;;;;;;;15.07;10.83;;;;;;;-144.99;100.00;52515.34;3938228;28;10000726;-74
2021/03/02 06:18:23;;;;;;;30.50;12.27;;;;;;;-144.99;100.00;52468.47;4968976;28;20243;-74
2021/03/02 06:20:50;;;;;;;24.93;11.77;;;;;;;-144.99;100.00;52462.34;4967184;28;20648;-73
2021/03/02 06:23:21;;;;;;;19.47;12.27;;;;;;;-144.99;100.00;52501.09;4968488;28;20631;-73
2021/03/02 06:25:47;;;;;;;18.13;13.60;;;;;;;-144.99;100.00;52517.41;4967867;28;21051;-74
2021/03/02 06:28:13;;;;;;;15.77;12.13;;;;;;;-144.99;100.00;52513.31;4972022;28;20896;-78
2021/03/02 06:30:40;;;;;;;13.80;9.33;;;;;;;-144.99;100.00;52505.16;4970440;28;20627;-76
2021/03/02 06:33:17;;;;;;;14.30;10.17;;;;;;;-144.99;100.00;52533.69;4972418;28;20685;-76
2021/03/02 06:35:44;;;;;;;12.87;10.20;;;;;;;-144.99;100.00;52517.41;4972422;28;20650;-78
2021/03/02 06:38:11;;;;;;;14.70;10.47;;;;;;;-144.99;100.00;52525.56;4972081;28;20731;-77
2021/03/02 06:40:41;;;;;;;13.40;9.73;;;;;;;-144.99;100.00;52515.34;4972773;28;20665;-78
2021/03/02 06:43:08;;;;;;;17.07;10.77;;;;;;;-144.99;100.00;52505.16;4973192;28;20711;-77
2021/03/02 06:45:35;;;;;;;16.50;12.97;;;;;;;-144.99;100.00;52488.84;4971841;28;20968;-76
2021/03/02 06:48:03;;;;;;;14.03;10.57;;;;;;;-144.99;100.00;52492.94;4969770;28;20702;-79
2021/03/02 06:50:37;;;;;;;17.57;12.17;;;;;;;-144.99;100.00;52509.25;4969761;28;20643;-78
2021/03/02 06:53:09;;;;;;;21.50;15.37;;;;;;;-144.99;100.00;52488.84;4963413;28;20622;-77
2021/03/02 06:55:37;;;;;;;21.43;14.27;;;;;;;-144.99;100.00;52501.09;4968443;28;20627;-76
2021/03/02 06:58:20;;;;;;;16.47;12.70;;;;;;;-144.99;100.00;52537.78;4971584;28;20687;-76
2021/03/02 07:00:49;;;;;;;19.63;14.77;;;;;;;-144.99;100.00;52515.34;4970919;28;20861;-78
2021/03/02 07:03:26;;;;;;;20.57;14.13;;;;;;;-144.99;100.00;52541.84;4969854;28;20686;-77
2021/03/02 07:05:55;;;;;;;22.20;13.40;;;;;;;-144.99;100.00;52484.78;4970540;28;20682;-78
2021/03/02 07:08:22;;;;;;;15.93;13.53;;;;;;;-144.99;100.00;52499.06;4973072;28;20652;-77
2021/03/02 07:10:51;;;;;;;26.83;15.80;;;;;;;-144.99;100.00;52519.44;4971746;28;20639;-79
2021/03/02 07:13:18;;;;;;;19.40;13.17;;;;;;;-144.99;100.00;52529.63;4971764;28;20635;-76
2021/03/02 07:15:46;;;;;;;16.37;13.40;;;;;;;-144.99;100.00;52525.56;4966082;28;21654;-77
2021/03/02 07:18:15;;;;;;;29.03;16.00;;;;;;;-144.99;100.00;52525.56;4970377;28;20730;-75
2021/03/02 07:20:49;;;;;;;20.57;15.13;;;;;;;-144.99;100.00;52505.16;4970583;28;20737;-76
2021/03/02 07:23:18;;;;;;;25.17;16.87;;;;;;;-144.99;100.00;52531.66;4973217;28;20615;-78
2021/03/02 07:25:45;;;;;;;25.73;16.80;;;;;;;-144.99;100.00;52517.41;4972195;28;21184;-77
2021/03/02 07:28:13;;;;;;;27.67;16.17;;;;;;;-144.99;100.00;52517.41;4970836;28;20662;-74
2021/03/02 07:30:39;;;;;;;31.60;19.03;;;;;;;-144.99;100.00;52470.50;4968746;28;21223;-75
2021/03/02 07:33:06;;;;;;;29.33;17.13;;;;;;;-144.99;100.00;52501.09;4969849;28;20627;-77
2021/03/02 07:35:34;;;;;;;28.17;17.43;;;;;;;-144.99;100.00;52452.16;4970447;28;20635;-76
2021/03/02 07:38:19;;;;;;;27.37;17.90;;;;;;;-144.99;100.00;52499.06;4972051;28;20788;-75
2021/03/02 07:40:48;;;;;;;29.57;17.67;;;;;;;-144.99;100.00;52480.72;4974442;28;20647;-78
2021/03/02 07:43:26;;;;;;;29.10;18.00;;;;;;;-144.99;100.00;52474.59;4975329;28;20706;-77
2021/03/02 07:45:53;;;;;;;25.80;17.40;;;;;;;-144.99;100.00;52468.47;4972477;28;20615;-78
2021/03/02 07:48:36;;;;;;;24.03;15.30;;;;;;;-144.99;100.00;52486.81;4973173;28;20706;-78
2021/03/02 07:51:19;;;;;;;22.63;14.53;;;;;;;-144.99;100.00;52488.84;4965746;28;20750;-78
2021/03/02 07:53:48;;;;;;;21.63;13.87;;;;;;;-144.99;100.00;52460.31;4972361;28;21152;-77
2021/03/02 07:56:22;;;;;;;19.50;13.27;;;;;;;-144.99;100.00;52472.56;4971933;28;20734;-77
2021/03/02 07:59:19;;;;;;;24.53;12.93;;;;;;;-144.99;100.00;52488.84;4973170;28;20627;-80
2021/03/02 08:02:14;;;;;;;16.97;14.53;;;;;;;-144.99;100.00;52505.16;4973453;28;20668;-76
2021/03/02 08:04:41;;;;;;;18.70;15.57;;;;;;;-144.99;100.00;52505.16;4972881;28;20663;-78
2021/03/02 08:07:27;;;;;;;20.90;15.73;;;;;;;-144.99;100.00;52484.78;4978172;28;20698;-78
2021/03/02 08:09:56;;;;;;;22.57;13.80;;;;;;;-144.99;100.00;52480.72;4974020;28;20643;-78
2021/03/02 08:12:31;;;;;;;19.37;15.27;;;;;;;-144.99;100.00;52468.47;4976356;28;20646;-75
2021/03/02 08:15:02;;;;;;;20.63;14.47;;;;;;;-144.99;100.00;52476.63;4964728;28;20614;-73
2021/03/02 08:17:29;;;;;;;15.80;11.83;;;;;;;-144.99;100.00;52478.66;4971351;28;20663;-74
2021/03/02 08:20:04;;;;;;;19.27;14.43;;;;;;;-144.99;100.00;52501.09;4974601;28;20624;-77
2021/03/02 08:22:58;;;;;;;16.33;12.87;;;;;;;-144.99;100.00;52470.50;4970727;28;20631;-72
2021/03/02 08:25:35;;;;;;;16.10;12.77;;;;;;;-144.99;100.00;52484.78;4972411;28;20619;-78
2021/03/02 08:28:04;;;;;;;21.90;13.33;;;;;;;-144.99;100.00;52470.50;4976496;28;20714;-76
2021/03/02 08:30:33;;;;;;;16.37;11.73;;;;;;;-144.99;100.00;52470.50;4970773;28;20834;-75
2021/03/02 08:33:03;;;;;;;17.70;11.27;;;;;;;-144.99;100.00;52480.72;4972521;28;20626;-76
2021/03/02 08:35:32;;;;;;;19.30;14.17;;;;;;;-144.99;100.00;52456.25;4972065;28;20722;-76
2021/03/02 08:37:59;;;;;;;21.33;14.93;;;;;;;-144.99;100.00;52452.16;4972517;28;21155;-75
2021/03/02 08:40:42;;;;;;;18.67;13.90;;;;;;;-144.99;100.00;52460.31;4971396;28;20697;-75
2021/03/02 08:43:10;;;;;;;24.27;15.67;;;;;;;-144.99;100.00;52470.50;4972848;28;20639;-78
2021/03/02 08:45:38;;;;;;;23.73;15.07;;;;;;;-144.99;100.00;52472.56;4971216;28;20662;-74
2021/03/02 08:48:15;;;;;;;31.97;18.53;;;;;;;-144.99;99.95;52488.84;4974044;28;20671;-75
2021/03/02 08:50:42;;;;;;;20.57;16.13;;;;;;;-144.99;100.00;52448.09;4969916;28;21108;-74
2021/03/02 08:53:31;;;;;;;24.90;16.00;;;;;;;-144.99;100.00;52497.00;4971845;28;20711;-76
2021/03/02 08:55:59;;;;;;;27.73;18.27;;;;;;;-144.99;99.86;52488.84;4969408;28;20955;-76
2021/03/02 08:58:27;;;;;;;23.37;17.03;;;;;;;-144.99;99.77;52480.72;4972325;28;20744;-71
2021/03/02 09:00:59;;;;;;;22.47;16.47;;;;;;;-144.99;99.90;52444.03;4971025;28;20746;-75
2021/03/02 09:03:25;;;;;;;25.47;15.63;;;;;;;-144.99;99.95;52476.63;4971997;28;20619;-77
2021/03/02 09:06:06;;;;;;;22.10;16.77;;;;;;;-144.99;99.51;52423.63;4970670;28;20615;-76
2021/03/02 09:08:32;;;;;;;29.08;23.05;;;;;;;-144.99;98.96;52452.16;4969939;28;20789;-76
2021/03/02 09:11:03;;;;;;;28.30;20.57;;;;;;;-144.99;99.07;52448.09;4973246;28;20247;-75
2021/03/02 09:13:36;;;;;;;19.50;15.97;;;;;;;-144.99;98.80;52452.16;4975102;28;20726;-76
2021/03/02 09:16:02;;;;;;;19.97;17.37;;;;;;;-144.99;98.11;52452.16;4972069;28;20845;-74
2021/03/02 09:18:30;;;;;;;23.47;17.13;;;;;;;-144.99;97.64;52456.25;4972652;28;20638;-79
2021/03/02 09:20:57;;;;;;;34.23;21.50;;;;;;;-144.99;97.57;52431.78;4973463;28;20762;-79
2021/03/02 09:23:23;;;;;;;33.27;23.50;;;;;;;-144.99;96.62;52452.16;4971922;28;21003;-79
2021/03/02 09:25:51;;;;;;;33.27;22.70;;;;;;;-144.99;96.70;52452.16;4972850;28;20671;-77
2021/03/02 09:28:19;;;;;;;34.77;25.53;;;;;;;-144.99;97.01;52399.19;4971465;28;20667;-77
2021/03/02 09:30:46;;;;;;;37.17;23.53;;;;;;;-144.99;95.82;52431.78;4973385;28;21022;-76
2021/03/02 09:33:14;;;;;;;37.27;25.13;;;;;;;-144.99;94.78;52415.47;4973528;28;20711;-76
2021/03/02 09:35:41;;;;;;;37.27;25.93;;;;;;;-144.99;92.07;52413.44;4972483;28;20738;-77
2021/03/02 09:38:08;;;;;;;37.97;25.63;;;;;;;-144.99;91.30;52448.09;4972698;28;20666;-78
2021/03/02 09:40:41;;;;;;;33.30;23.97;;;;;;;-144.99;90.03;52399.19;4972749;28;20654;-78
2021/03/02 09:43:07;;;;;;;31.60;24.53;;;;;;;-144.99;88.23;52384.91;4971352;28;20263;-77
2021/03/02 09:45:35;;;;;;;41.83;26.60;;;;;;;-144.99;87.18;52356.38;4971317;28;20211;-77
2021/03/02 09:48:06;;;;;;;42.33;27.87;;;;;;;-144.99;86.06;52374.72;4974031;28;20275;-75
2021/03/02 09:50:36;;;;;;;37.50;24.90;;;;;;;-144.99;83.10;52358.41;4973009;28;20208;-78
2021/03/02 09:53:13;;;;;;;37.37;25.77;;;;;;;-144.99;79.68;52382.88;4974571;28;20230;-78
2021/03/02 09:55:42;;;;;;;38.10;26.40;;;;;;;-144.99;76.48;52331.91;4979259;28;20200;-78
2021/03/02 09:58:13;;;;;;;39.83;29.20;;;;;;;-144.99;72.54;52342.09;4972469;28;20224;-81
2021/03/02 10:00:47;;;;;;;32.30;24.57;;;;;;;-144.99;70.34;52348.22;4976156;28;20236;-78
2021/03/02 10:03:16;;;;;;;33.17;24.23;;;;;;;-144.99;66.59;52338.03;4980249;28;20533;-79
2021/03/02 10:05:45;;;;;;;30.57;21.63;;;;;;;-144.99;64.19;52338.03;4974158;28;20228;-79
2021/03/02 10:08:36;;;;;;;29.67;23.07;;;;;;;-144.99;61.65;52268.72;4974846;28;20311;-80
2021/03/02 10:11:18;;;;;;;25.27;19.03;;;;;;;-144.99;60.39;52342.09;4973383;28;20295;-77
2021/03/02 10:13:49;;;;;;;24.37;17.57;;;;;;;-144.99;59.57;52333.94;4972373;28;20192;-78
2021/03/02 10:16:18;;;;;;;29.20;20.27;;;;;;;-144.99;58.19;52276.88;4969368;28;20648;-74
2021/03/02 10:18:52;;;;;;;22.37;15.90;;;;;;;-144.99;56.54;52278.91;4977937;28;20211;-79
2021/03/02 10:21:19;;;;;;;22.47;18.77;;;;;;;-144.99;55.22;52285.03;4976089;28;20239;-79
2021/03/02 10:23:47;;;;;;;24.53;18.37;;;;;;;-144.99;53.67;52268.72;5012059;22;20301;-73
2021/03/02 10:26:19;;;;;;;26.57;21.07;;;;;;;-144.99;52.25;52293.19;4991817;28;20394;-75
2021/03/02 10:28:46;;;;;;;20.30;16.33;;;;;;;-144.99;51.14;52244.28;4985867;28;20208;-75
2021/03/02 10:31:12;;;;;;;23.90;19.10;;;;;;;-144.99;49.77;52236.13;4985765;28;20206;-76
2021/03/02 10:33:39;;;;;;;26.90;20.63;;;;;;;-144.99;48.77;52258.53;4976664;28;20777;-76
2021/03/02 10:36:16;;;;;;;24.20;18.40;;;;;;;-144.99;47.53;52227.97;4966597;28;20658;-76
2021/03/02 10:38:43;;;;;;;22.20;18.20;;;;;;;-144.99;46.57;52209.63;4970132;28;20657;-73
2021/03/02 10:41:09;;;;;;;25.07;18.87;;;;;;;-144.99;46.52;52236.13;4971911;28;20224;-76
2021/03/02 10:43:35;;;;;;;27.00;19.47;;;;;;;-144.99;46.10;52232.03;4967075;28;20321;-75
2021/03/02 10:46:01;;;;;;;23.83;19.60;;;;;;;-144.99;45.26;52146.44;4969087;28;20223;-76
2021/03/02 10:48:27;;;;;;;23.80;17.63;;;;;;;-144.99;44.45;52158.66;4974024;28;20731;-75
2021/03/02 10:50:55;;;;;;;23.67;19.43;;;;;;;-144.99;43.48;52140.31;4970190;28;20238;-76
2021/03/02 10:53:21;;;;;;;25.53;18.30;;;;;;;-144.99;42.71;52154.59;4974727;28;20253;-73
2021/03/02 10:55:47;;;;;;;24.43;18.63;;;;;;;-144.99;42.09;52121.97;4969811;28;20208;-75
2021/03/02 10:58:13;;;;;;;24.37;18.53;;;;;;;-144.99;41.10;52134.22;4969902;28;20581;-75
2021/03/02 11:00:39;;;;;;;22.73;16.63;;;;;;;-144.99;40.66;52109.75;4974267;28;20718;-73
2021/03/02 11:03:06;;;;;;;24.57;17.83;;;;;;;-144.99;40.24;52138.28;4971118;28;20227;-75
2021/03/02 11:05:32;;;;;;;22.67;17.37;;;;;;;-144.99;39.96;52138.28;4968407;28;20662;-72
2021/03/02 11:07:58;;;;;;;23.03;17.60;;;;;;;-144.99;39.32;52077.16;4970307;28;20207;-75
2021/03/02 11:10:25;;;;;;;22.00;17.67;;;;;;;-144.99;38.77;52097.53;4972124;28;20271;-80
2021/03/02 11:12:51;;;;;;;21.70;16.40;;;;;;;-144.99;38.50;52048.63;4971460;28;20307;-80
2021/03/02 11:15:17;;;;;;;19.20;14.67;;;;;;;-144.99;37.89;52069.00;4970143;28;20226;-78
2021/03/02 11:17:43;;;;;;;20.83;16.23;;;;;;;-144.99;37.39;52003.78;4974037;28;20205;-78
2021/03/02 11:20:10;;;;;;;19.93;15.67;;;;;;;-144.99;36.57;52040.47;4970362;28;20334;-81
2021/03/02 11:22:36;;;;;;;18.63;14.17;;;;;;;-144.99;36.19;52044.53;4976092;28;20774;-78
2021/03/02 11:25:04;;;;;;;21.57;14.23;;;;;;;-144.99;35.61;52040.47;4973957;28;20210;-76
2021/03/02 11:27:30;;;;;;;18.23;14.87;;;;;;;-144.99;34.89;52028.22;4970897;28;20564;-78
2021/03/02 11:29:56;;;;;;;17.63;14.07;;;;;;;-144.99;34.72;52022.13;4971376;28;20470;-79
2021/03/02 11:32:22;;;;;;;18.90;15.00;;;;;;;-144.99;34.41;52016.00;4973335;28;20199;-78
2021/03/02 11:34:48;;;;;;;20.73;14.97;;;;;;;-144.99;33.95;51975.25;4966877;28;20916;-76
2021/03/02 11:37:14;;;;;;;17.80;13.87;;;;;;;-144.99;33.34;52036.38;4968040;28;20213;-77
2021/03/02 11:39:40;;;;;;;17.57;15.00;;;;;;;-144.99;33.12;52034.34;4973234;28;20251;-75
2021/03/02 11:42:07;;;;;;;20.27;16.13;;;;;;;-144.99;32.76;51997.66;4974601;28;20252;-76
2021/03/02 11:44:33;;;;;;;18.93;16.93;;;;;;;-144.99;32.41;51979.31;4973163;28;20593;-78
2021/03/02 11:46:59;;;;;;;18.37;16.20;;;;;;;-144.99;31.98;51989.50;4975510;28;20209;-76
2021/03/02 11:49:25;;;;;;;21.17;15.87;;;;;;;-144.99;31.67;51999.69;4971047;28;20348;-76
2021/03/02 11:51:51;;;;;;;18.07;16.17;;;;;;;-144.99;31.32;51979.31;4977816;28;20209;-77
2021/03/02 11:54:17;;;;;;;27.63;17.53;;;;;;;-144.99;31.09;51971.16;4974983;28;20230;-76
2021/03/02 11:56:43;;;;;;;18.23;15.67;;;;;;;-144.99;31.11;51991.56;4973816;28;20900;-76
2021/03/02 11:59:10;;;;;;;18.73;16.63;;;;;;;-144.99;30.82;51938.56;4973826;28;20207;-78
2021/03/02 12:01:36;;;;;;;20.77;16.50;;;;;;;-144.99;30.56;51963.03;4979902;28;20261;-77
2021/03/02 12:04:03;;;;;;;19.20;16.53;;;;;;;-144.99;30.60;51995.63;4975026;28;20310;-78
2021/03/02 12:06:29;;;;;;;20.73;17.77;;;;;;;-144.99;30.16;51979.31;4972650;28;20207;-74
2021/03/02 12:08:55;;;;;;;18.77;15.63;;;;;;;-144.99;30.00;51954.88;4976028;28;20206;-73